Time;durP1;ratioP1;P1;durP2;ratioP2;P2;SDS_P1;SDS_P2;PMS_P1;PMS_P2;Temp;Humidity;BMP_temperature;BMP_pressure;BME280_temperature;BME280_humidity;BME280_pressure;Samples;Min_cycle;Max_cycle;Signal;HPM_P1;HPM_P2
2021/12/23 00:00:46;;;;;;;56.17;24.83;;;;;;;-5.33;100.00;99578.16;4954795;28;20047;-63
2021/12/23 00:03:12;;;;;;;46.38;21.08;;;;;;;-5.48;98.63;99573.28;4949696;28;20372;-63
2021/12/23 00:05:37;;;;;;;48.55;20.23;;;;;;;-5.51;99.11;99565.72;4950706;28;20046;-63
2021/12/23 00:08:03;;;;;;;44.67;19.10;;;;;;;-5.72;97.89;99565.75;4951325;28;20022;-63
2021/12/23 00:10:28;;;;;;;51.65;23.45;;;;;;;-5.80;98.25;99559.53;4951174;28;20047;-63
2021/12/23 00:12:54;;;;;;;49.50;22.95;;;;;;;-5.50;100.00;99567.38;4951786;28;20023;-63
2021/12/23 00:15:36;;;;;;;48.28;21.65;;;;;;;-5.45;100.00;99565.19;4949269;28;20038;-63
2021/12/23 00:18:06;;;;;;;55.80;25.73;;;;;;;-5.41;100.00;99560.53;4950275;28;20129;-63
2021/12/23 00:23:25;;;;;;;52.75;21.73;;;;;;;-5.39;99.69;99544.72;4953427;28;20037;-63
2021/12/23 00:25:52;;;;;;;53.58;24.58;;;;;;;-5.03;99.14;99532.84;4956119;28;20288;-63
2021/12/23 00:28:18;;;;;;;51.40;22.02;;;;;;;-4.80;97.53;99520.34;4944788;28;20086;-63
2021/12/23 00:30:43;;;;;;;49.78;20.48;;;;;;;-4.84;96.88;99539.88;4957631;28;20039;-63
2021/12/23 00:33:09;;;;;;;53.80;21.67;;;;;;;-4.92;96.34;99537.94;4946172;28;20030;-63
2021/12/23 00:35:34;;;;;;;45.50;20.70;;;;;;;-5.14;95.27;99533.81;4951944;28;20063;-63
2021/12/23 00:38:05;;;;;;;47.08;20.02;;;;;;;-5.17;98.30;99534.06;4951443;28;20082;-63
2021/12/23 00:40:30;;;;;;;50.92;20.45;;;;;;;-4.56;100.00;99515.53;4953034;28;20506;-63
2021/12/23 00:42:56;;;;;;;53.95;22.65;;;;;;;-4.75;99.42;99510.31;4953475;28;20038;-63
2021/12/23 00:45:21;;;;;;;53.45;22.08;;;;;;;-4.89;96.33;99513.31;4948139;28;20039;-63
2021/12/23 00:47:47;;;;;;;48.95;22.15;;;;;;;-4.85;96.38;99519.94;4955018;28;20026;-63
2021/12/23 00:50:12;;;;;;;43.85;19.17;;;;;;;-4.85;98.12;99519.94;4953125;28;20081;-62
2021/12/23 00:52:40;;;;;;;50.55;22.00;;;;;;;-5.07;96.87;99521.81;4954496;28;20033;-63
2021/12/23 00:55:06;;;;;;;47.78;19.67;;;;;;;-5.43;96.61;99515.44;4948785;28;20030;-63
2021/12/23 00:57:37;;;;;;;41.70;18.45;;;;;;;-5.21;99.59;99510.00;4955232;28;20289;-63
2021/12/23 01:00:03;;;;;;;49.50;21.20;;;;;;;-5.02;100.00;99510.97;4947083;28;20159;-63
2021/12/23 01:02:31;;;;;;;46.25;20.48;;;;;;;-5.11;100.00;99498.72;4949297;28;20090;-63
2021/12/23 01:04:56;;;;;;;45.67;20.70;;;;;;;-5.05;100.00;99499.00;4951173;28;20034;-63
2021/12/23 01:07:22;;;;;;;45.47;19.98;;;;;;;-5.07;100.00;99492.25;4953808;28;20520;-63
2021/12/23 01:09:47;;;;;;;42.55;19.65;;;;;;;-5.35;99.32;99496.47;4950097;28;20860;-63
2021/12/23 01:12:16;;;;;;;46.72;20.58;;;;;;;-5.40;99.74;99498.66;4949017;28;20036;-63
2021/12/23 01:14:53;;;;;;;46.50;21.15;;;;;;;-5.69;98.46;99496.78;4968010;28;20389;-63
2021/12/23 01:19:50;;;;;;;46.50;21.30;;;;;;;-5.59;99.40;99478.53;4948399;28;20035;-63
2021/12/23 01:22:15;;;;;;;43.45;18.02;;;;;;;-5.54;100.00;99471.97;4957244;28;20473;-62
2021/12/23 01:24:41;;;;;;;44.75;20.00;;;;;;;-5.27;100.00;99466.09;4957834;28;20042;-63
2021/12/23 01:27:06;;;;;;;49.80;21.90;;;;;;;-5.46;100.00;99474.72;4951255;28;20514;-62
2021/12/23 01:29:32;;;;;;;60.00;21.60;;;;;;;-5.59;99.52;99473.31;4953355;28;20041;-62
2021/12/23 01:32:00;;;;;;;40.95;19.75;;;;;;;-5.68;98.88;99459.28;4949456;28;20044;-62
2021/12/23 01:34:25;;;;;;;53.75;22.15;;;;;;;-5.57;99.40;99469.59;4948686;28;20039;-62
2021/12/23 01:36:51;;;;;;;50.17;20.58;;;;;;;-5.59;99.77;99463.72;4955296;28;20510;-62
2021/12/23 01:39:16;;;;;;;50.75;21.65;;;;;;;-5.42;100.00;99462.22;4951303;28;20504;-62
2021/12/23 01:41:42;;;;;;;43.50;21.15;;;;;;;-5.45;99.18;99460.69;4952027;28;20082;-62
2021/12/23 01:44:07;;;;;;;51.40;21.70;;;;;;;-5.15;99.63;99445.06;4951112;28;20078;-62
2021/12/23 01:46:33;;;;;;;45.25;19.63;;;;;;;-5.40;97.38;99442.00;4948945;28;20049;-63
2021/12/23 01:48:58;;;;;;;43.38;20.77;;;;;;;-5.29;98.91;99448.91;4954919;28;20378;-62
2021/12/23 01:51:23;;;;;;;56.75;21.70;;;;;;;-5.18;99.74;99440.94;4950354;28;20054;-62
2021/12/23 01:53:49;;;;;;;48.40;19.80;;;;;;;-5.22;99.04;99440.41;4952656;28;20031;-62
2021/12/23 01:56:15;;;;;;;57.42;22.67;;;;;;;-5.20;99.58;99438.47;4962925;28;20624;-62
2021/12/23 01:58:41;;;;;;;56.55;24.05;;;;;;;-5.42;98.46;99436.09;4955221;28;20059;-62
2021/12/23 02:01:06;;;;;;;43.28;20.70;;;;;;;-5.58;96.97;99433.19;4940072;28;20058;-62
2021/12/23 02:03:31;;;;;;;46.28;21.02;;;;;;;-5.60;97.92;99430.69;4955716;28;20027;-62
2021/12/23 02:05:57;;;;;;;52.60;20.35;;;;;;;-5.54;98.19;99432.78;4955579;28;20554;-62
2021/12/23 02:08:22;;;;;;;45.95;20.17;;;;;;;-5.71;97.13;99430.81;4973841;28;20027;-62
2021/12/23 02:10:48;;;;;;;48.95;19.55;;;;;;;-5.67;98.34;99429.56;4953612;28;20502;-62
2021/12/23 02:13:13;;;;;;;48.47;19.92;;;;;;;-5.66;98.59;99426.03;4957376;28;20501;-62
2021/12/23 02:15:39;;;;;;;44.55;19.10;;;;;;;-5.53;100.00;99418.75;4952651;28;20805;-62
2021/12/23 02:18:04;;;;;;;48.25;19.73;;;;;;;-5.61;99.37;99418.63;4963964;28;20130;-62
2021/12/23 02:20:31;;;;;;;48.25;20.90;;;;;;;-5.68;98.94;99417.50;4955742;28;20062;-63
2021/12/23 02:22:57;;;;;;;49.35;21.77;;;;;;;-5.67;98.21;99413.91;4955024;28;20517;-62
2021/12/23 02:25:23;;;;;;;47.38;21.45;;;;;;;-5.65;98.16;99419.81;4954047;28;20486;-62
2021/12/23 02:27:49;;;;;;;51.70;19.95;;;;;;;-5.43;100.00;99416.16;4958721;28;20034;-62
2021/12/23 02:30:18;;;;;;;45.45;20.88;;;;;;;-5.59;97.93;99416.69;4956012;28;20043;-62
2021/12/23 02:32:44;;;;;;;44.85;20.83;;;;;;;-5.70;97.38;99411.56;4958102;28;20023;-62
2021/12/23 02:35:12;;;;;;;46.97;21.38;;;;;;;-5.54;98.87;99404.06;4965102;28;20708;-61
2021/12/23 02:37:38;;;;;;;47.03;20.52;;;;;;;-5.57;98.95;99404.31;4953875;28;20500;-62
2021/12/23 02:40:04;;;;;;;56.80;22.25;;;;;;;-5.54;98.69;99390.16;4950978;28;20034;-62
2021/12/23 02:42:30;;;;;;;49.60;21.55;;;;;;;-5.39;99.35;99385.34;4957146;28;20029;-61
2021/12/23 02:44:55;;;;;;;46.95;21.85;;;;;;;-5.17;100.00;99390.31;4955397;28;20039;-62
2021/12/23 02:47:21;;;;;;;54.95;22.17;;;;;;;-5.32;98.67;99387.28;4955390;28;20133;-61
2021/12/23 02:49:46;;;;;;;54.83;21.85;;;;;;;-5.29;99.35;99376.59;4955104;28;20482;-61
2021/12/23 02:52:11;;;;;;;45.33;21.75;;;;;;;-5.28;99.19;99377.41;4957340;28;20118;-61
2021/12/23 02:54:37;;;;;;;48.88;20.88;;;;;;;-5.38;98.21;99371.34;4961929;28;20429;-61
2021/12/23 02:57:03;;;;;;;51.13;21.77;;;;;;;-5.24;99.56;99357.88;4960043;28;20719;-62
2021/12/23 02:59:28;;;;;;;49.83;21.65;;;;;;;-5.22;99.07;99350.69;4961905;28;20023;-61
2021/12/23 03:01:54;;;;;;;46.97;20.83;;;;;;;-5.29;98.26;99354.81;4957860;28;20053;-63
2021/12/23 03:04:19;;;;;;;50.63;21.70;;;;;;;-5.28;99.05;99356.50;4956166;28;20042;-61
2021/12/23 03:06:44;;;;;;;51.15;21.73;;;;;;;-5.26;99.40;99350.16;4956045;28;20039;-61
2021/12/23 03:09:10;;;;;;;57.65;22.00;;;;;;;-5.23;98.32;99359.53;4969208;28;20043;-63
2021/12/23 03:11:35;;;;;;;48.60;21.02;;;;;;;-5.10;98.83;99360.06;4956312;28;20106;-63
2021/12/23 03:14:01;;;;;;;51.10;21.95;;;;;;;-5.14;98.44;99353.47;4950484;28;20505;-63
2021/12/23 03:16:30;;;;;;;46.10;21.08;;;;;;;-5.13;98.36;99355.09;4947864;28;20058;-63
2021/12/23 03:18:56;;;;;;;55.47;23.80;;;;;;;-5.08;98.11;99352.09;4949836;28;20411;-63
2021/12/23 03:21:21;;;;;;;52.60;20.95;;;;;;;-5.16;97.42;99355.41;4952687;28;20044;-63
2021/12/23 03:23:47;;;;;;;50.65;21.27;;;;;;;-5.21;97.43;99354.97;4954905;28;20042;-63
2021/12/23 03:26:12;;;;;;;44.33;19.63;;;;;;;-5.11;98.09;99349.75;4951972;28;20051;-63
2021/12/23 03:28:37;;;;;;;48.90;20.02;;;;;;;-5.11;97.83;99349.75;4951880;28;20079;-63
2021/12/23 03:31:03;;;;;;;49.80;19.25;;;;;;;-5.20;97.59;99344.38;4953021;28;20043;-64
2021/12/23 03:33:28;;;;;;;23.75;10.90;;;;;;;-5.10;97.08;99344.38;4954205;28;20050;-62
2021/12/23 03:35:54;;;;;;;53.28;21.83;;;;;;;-5.07;97.39;99338.03;4956065;28;20047;-63
2021/12/23 03:38:20;;;;;;;48.13;23.05;;;;;;;-5.01;97.68;99330.47;4951801;28;20175;-63
2021/12/23 03:40:45;;;;;;;44.80;20.48;;;;;;;-5.02;97.31;99326.22;4954382;28;20490;-63
2021/12/23 03:43:12;;;;;;;39.30;19.02;;;;;;;-4.96;97.01;99316.16;4959961;28;20086;-63
2021/12/23 03:45:38;;;;;;;53.08;24.30;;;;;;;-4.90;96.67;99307.75;4953903;28;20109;-62
2021/12/23 03:48:04;;;;;;;51.08;21.00;;;;;;;-4.94;96.27;99307.22;4954076;28;20026;-63
2021/12/23 03:50:29;;;;;;;47.40;20.58;;;;;;;-4.80;96.99;99298.09;4949390;28;20102;-63
2021/12/23 03:52:55;;;;;;;43.30;20.20;;;;;;;-4.75;97.71;99293.25;4953001;28;20489;-63
2021/12/23 03:55:20;;;;;;;50.92;20.10;;;;;;;-4.83;97.01;99299.19;4959130;28;20051;-63
2021/12/23 03:57:46;;;;;;;49.08;21.02;;;;;;;-4.82;96.61;99305.25;4953270;28;20532;-63
2021/12/23 04:00:13;;;;;;;45.88;21.67;;;;;;;-4.71;97.49;99309.50;4951848;28;20390;-63
2021/12/23 04:02:39;;;;;;;29.27;13.05;;;;;;;-4.80;96.70;99298.09;4947718;28;20119;-63
2021/12/23 04:05:06;;;;;;;45.42;21.60;;;;;;;-4.84;97.87;99301.94;4952153;28;20035;-63
2021/12/23 04:07:32;;;;;;;39.05;18.75;;;;;;;-4.95;96.81;99291.66;4956455;28;20027;-63
2021/12/23 04:09:57;;;;;;;38.85;20.73;;;;;;;-5.10;96.63;99281.66;4947024;28;20041;-63
2021/12/23 04:12:23;;;;;;;49.40;20.85;;;;;;;-4.95;97.52;99279.41;4950684;28;20046;-62
2021/12/23 04:14:48;;;;;;;45.88;20.30;;;;;;;-4.93;98.09;99266.22;4948411;28;20139;-63
2021/12/23 04:17:14;;;;;;;47.42;21.60;;;;;;;-4.97;96.94;99275.28;4957553;28;20062;-63
2021/12/23 04:19:39;;;;;;;53.50;22.70;;;;;;;-5.01;97.16;99275.56;4952070;28;20031;-63
2021/12/23 04:22:05;;;;;;;45.40;20.33;;;;;;;-4.99;97.24;99272.84;4950568;28;20545;-63
2021/12/23 04:24:30;;;;;;;44.75;20.13;;;;;;;-4.96;97.30;99277.78;4947684;28;20035;-63
2021/12/23 04:26:55;;;;;;;47.67;19.52;;;;;;;-4.82;98.47;99268.63;4954176;28;20373;-63
2021/12/23 04:29:21;;;;;;;49.72;22.80;;;;;;;-4.99;97.25;99267.59;4965687;28;20494;-63
2021/12/23 04:31:46;;;;;;;36.40;16.95;;;;;;;-5.05;96.59;99279.44;4952465;28;20046;-62
2021/12/23 04:34:12;;;;;;;37.28;16.40;;;;;;;-5.09;97.00;99267.63;4949911;28;20435;-62
2021/12/23 04:36:37;;;;;;;50.20;20.95;;;;;;;-5.15;97.21;99273.41;4945903;28;20047;-64
2021/12/23 04:39:03;;;;;;;47.28;21.08;;;;;;;-5.15;97.05;99268.16;4950090;28;20816;-62
2021/12/23 04:41:30;;;;;;;44.83;20.50;;;;;;;-5.16;97.60;99250.84;4953733;28;20047;-62
2021/12/23 04:43:56;;;;;;;50.85;24.48;;;;;;;-5.13;97.55;99237.50;4951253;28;20063;-62
2021/12/23 04:46:21;;;;;;;44.83;20.08;;;;;;;-5.07;97.58;99243.94;4951367;28;20550;-62
2021/12/23 04:48:47;;;;;;;52.45;21.45;;;;;;;-4.95;97.79;99242.00;4949193;28;20147;-62
2021/12/23 04:51:14;;;;;;;51.38;22.17;;;;;;;-4.90;97.55;99240.59;4956772;28;20140;-62
2021/12/23 04:53:39;;;;;;;49.85;23.33;;;;;;;-4.87;98.22;99235.06;4953936;28;20022;-62
2021/12/23 04:56:04;;;;;;;54.63;22.23;;;;;;;-4.75;98.06;99227.88;4956668;28;20133;-63
2021/12/23 04:58:30;;;;;;;48.05;21.98;;;;;;;-4.68;98.35;99233.34;4955367;28;20035;-63
2021/12/23 05:00:55;;;;;;;52.97;25.00;;;;;;;-4.59;97.72;99228.09;4959537;28;20043;-62
2021/12/23 05:03:22;;;;;;;49.50;21.67;;;;;;;-4.62;97.99;99223.16;4955204;28;20019;-62
2021/12/23 05:05:47;;;;;;;48.72;21.40;;;;;;;-4.59;98.58;99212.38;4949111;28;20050;-62
2021/12/23 05:08:13;;;;;;;47.88;20.73;;;;;;;-4.55;97.95;99208.50;4951512;28;20059;-63
2021/12/23 05:10:38;;;;;;;45.88;22.73;;;;;;;-4.52;97.50;99211.78;4957687;28;20138;-62
2021/12/23 05:13:04;;;;;;;39.83;17.73;;;;;;;-4.48;97.99;99200.06;4949629;28;20035;-62
2021/12/23 05:15:29;;;;;;;54.55;24.88;;;;;;;-4.40;98.05;99200.97;4953712;28;20715;-62
2021/12/23 05:17:55;;;;;;;50.08;23.10;;;;;;;-4.42;97.75;99209.94;4956968;28;20132;-63
2021/12/23 05:20:20;;;;;;;46.78;21.30;;;;;;;-4.42;97.38;99221.25;4954006;28;20071;-62
2021/12/23 05:22:47;;;;;;;49.00;22.88;;;;;;;-4.49;97.63;99221.97;4954480;28;20035;-63
2021/12/23 05:25:12;;;;;;;54.00;22.13;;;;;;;-4.46;98.02;99217.28;4939912;28;20039;-63
2021/12/23 05:27:38;;;;;;;58.78;26.75;;;;;;;-4.34;98.74;99199.59;4960958;28;20041;-63
2021/12/23 05:30:07;;;;;;;35.25;18.75;;;;;;;-4.47;97.65;99206.94;4968334;28;20030;-62
2021/12/23 05:32:32;;;;;;;54.67;22.17;;;;;;;-4.52;97.75;99196.91;4953499;28;20035;-63
2021/12/23 05:34:57;;;;;;;48.63;22.30;;;;;;;-4.57;97.23;99194.75;4961202;28;20035;-63
2021/12/23 05:37:23;;;;;;;56.92;24.77;;;;;;;-4.32;99.27;99195.00;4948212;28;20035;-62
2021/12/23 05:39:48;;;;;;;48.15;23.73;;;;;;;-4.48;97.94;99181.75;4956080;28;20034;-63
2021/12/23 05:42:14;;;;;;;53.47;23.80;;;;;;;-4.39;99.05;99186.13;4950875;28;20035;-62
2021/12/23 05:44:39;;;;;;;53.47;23.50;;;;;;;-4.44;98.27;99177.88;4948963;28;20034;-63
2021/12/23 05:47:05;;;;;;;54.00;24.10;;;;;;;-4.50;98.01;99184.50;4956927;28;20071;-62
2021/12/23 05:49:30;;;;;;;49.00;22.20;;;;;;;-4.41;99.05;99180.22;4949066;28;20050;-63
2021/12/23 05:51:56;;;;;;;46.63;20.73;;;;;;;-4.34;97.68;99178.66;4958914;28;20050;-62
2021/12/23 05:54:22;;;;;;;45.20;20.60;;;;;;;-4.36;98.05;99159.66;4949859;28;20039;-61
2021/12/23 05:56:48;;;;;;;46.28;21.23;;;;;;;-4.30;97.68;99163.47;4955387;28;20078;-61
2021/12/23 05:59:14;;;;;;;38.58;18.08;;;;;;;-4.19;97.08;99161.44;4957590;28;20066;-62
2021/12/23 06:01:39;;;;;;;35.33;19.60;;;;;;;-4.16;97.12;99153.28;4950675;28;20046;-62
2021/12/23 06:04:05;;;;;;;50.88;22.05;;;;;;;-4.22;97.03;99156.53;4957308;28;20031;-62
2021/12/23 06:06:30;;;;;;;62.13;27.27;;;;;;;-4.19;97.23;99158.84;4952283;28;20059;-62
2021/12/23 06:08:55;;;;;;;48.10;23.20;;;;;;;-4.14;96.76;99156.59;4954081;28;20046;-62
2021/12/23 06:11:21;;;;;;;61.45;27.35;;;;;;;-4.08;96.74;99146.50;4952793;28;20139;-64
2021/12/23 06:13:46;;;;;;;41.70;19.40;;;;;;;-4.16;96.28;99139.41;4950493;28;20485;-62
2021/12/23 06:16:12;;;;;;;55.60;24.92;;;;;;;-4.09;96.68;99144.81;4946228;28;20055;-63
2021/12/23 06:18:37;;;;;;;52.40;20.83;;;;;;;-4.05;96.21;99146.19;4947647;28;20043;-62
2021/12/23 06:21:04;;;;;;;41.50;18.13;;;;;;;-4.03;96.31;99149.47;4949316;28;20050;-61
2021/12/23 06:23:30;;;;;;;50.08;22.35;;;;;;;-4.01;96.30;99158.00;4943648;28;20577;-63
2021/12/23 06:25:56;;;;;;;49.90;21.77;;;;;;;-4.03;96.60;99166.00;4951716;28;20573;-63
2021/12/23 06:28:21;;;;;;;64.30;28.60;;;;;;;-3.98;96.62;99165.56;4951863;28;20031;-63
2021/12/23 06:30:47;;;;;;;55.88;23.90;;;;;;;-3.95;96.50;99157.41;4946530;28;20058;-62
2021/12/23 06:33:12;;;;;;;30.85;17.77;;;;;;;-3.97;96.21;99157.56;4955785;28;20050;-64
2021/12/23 06:35:38;;;;;;;39.03;19.48;;;;;;;-3.99;96.66;99148.22;4948370;28;20042;-63
2021/12/23 06:38:08;;;;;;;48.28;21.90;;;;;;;-4.04;96.27;99137.34;4951975;28;20034;-64
2021/12/23 06:40:33;;;;;;;45.10;21.17;;;;;;;-4.04;96.65;99134.72;4945733;28;20047;-64
2021/12/23 06:42:59;;;;;;;38.05;18.50;;;;;;;-4.06;96.47;99123.59;4950687;28;20150;-62
2021/12/23 06:45:24;;;;;;;50.92;21.33;;;;;;;-4.06;96.78;99118.38;4952299;28;20662;-63
2021/12/23 06:47:50;;;;;;;47.47;20.98;;;;;;;-4.09;96.58;99124.72;4947657;28;20039;-63
2021/12/23 06:50:17;;;;;;;57.03;23.30;;;;;;;-4.01;96.91;99122.16;4948023;28;20043;-62
2021/12/23 06:52:43;;;;;;;58.25;24.88;;;;;;;-4.07;97.42;99128.00;4955403;28;20126;-62
2021/12/23 06:55:10;;;;;;;55.58;24.73;;;;;;;-4.07;97.92;99116.72;4949427;28;20027;-61
2021/12/23 06:57:35;;;;;;;50.90;23.73;;;;;;;-4.00;97.58;99123.81;4952925;28;20030;-63
2021/12/23 07:00:01;;;;;;;46.78;22.00;;;;;;;-3.97;97.56;99112.19;4951972;28;20015;-63
2021/12/23 07:02:27;;;;;;;47.10;20.00;;;;;;;-3.98;97.41;99113.19;4950476;28;20027;-64
2021/12/23 07:04:52;;;;;;;61.97;25.77;;;;;;;-3.93;98.49;99119.59;4953204;28;20351;-63
2021/12/23 07:07:29;;;;;;;44.80;23.08;;;;;;;-3.97;97.65;99112.19;4962838;28;20050;-63
2021/12/23 07:09:54;;;;;;;46.72;21.92;;;;;;;-4.02;97.90;99124.94;4950288;28;20045;-63
2021/12/23 07:12:20;;;;;;;48.13;22.13;;;;;;;-4.01;97.46;99116.13;4954067;28;20441;-63
2021/12/23 07:14:45;;;;;;;65.97;28.52;;;;;;;-4.00;97.70;99112.50;4951283;28;20031;-63
2021/12/23 07:17:11;;;;;;;52.72;23.35;;;;;;;-3.97;97.85;99118.28;4947168;28;20624;-63
2021/12/23 07:19:36;;;;;;;56.22;22.90;;;;;;;-3.93;97.77;99118.78;4968348;28;20047;-63
2021/12/23 07:22:02;;;;;;;56.13;24.40;;;;;;;-3.87;98.18;99112.94;4947131;28;20042;-63
2021/12/23 07:24:28;;;;;;;61.58;26.55;;;;;;;-3.86;97.70;99093.66;4950950;28;20135;-63
2021/12/23 07:26:53;;;;;;;45.75;22.77;;;;;;;-3.80;97.85;99108.72;4933041;28;20102;-63
2021/12/23 07:29:20;;;;;;;49.80;23.40;;;;;;;-3.79;97.83;99120.88;4950335;28;20051;-61
2021/12/23 07:31:45;;;;;;;53.13;26.13;;;;;;;-3.77;97.35;99118.94;4953361;28;20051;-64
2021/12/23 07:34:10;;;;;;;60.38;25.25;;;;;;;-3.73;97.60;99116.81;4955613;28;20352;-63
2021/12/23 07:36:36;;;;;;;34.10;18.23;;;;;;;-3.70;97.79;99125.16;4949586;28;20244;-62
2021/12/23 07:39:02;;;;;;;55.55;27.00;;;;;;;-3.73;97.29;99127.28;4947953;28;20030;-62
2021/12/23 07:41:28;;;;;;;58.08;28.65;;;;;;;-3.70;97.18;99111.25;4945999;28;20043;-61
2021/12/23 07:44:03;;;;;;;39.35;20.08;;;;;;;-3.67;97.29;99110.13;4951455;28;20053;-62
2021/12/23 07:46:31;;;;;;;57.65;24.05;;;;;;;-3.61;97.98;99107.72;4944278;28;20054;-62
2021/12/23 07:48:57;;;;;;;49.92;24.02;;;;;;;-3.65;97.32;99116.03;4947277;28;20035;-63
2021/12/23 07:51:23;;;;;;;63.05;27.08;;;;;;;-3.63;97.63;99101.00;4945165;28;20058;-62
2021/12/23 07:53:48;;;;;;;50.85;22.85;;;;;;;-3.64;97.32;99110.66;4954465;28;20563;-62
2021/12/23 07:56:14;;;;;;;57.03;27.38;;;;;;;-3.72;97.62;99106.19;4945889;28;20047;-62
2021/12/23 07:58:39;;;;;;;36.40;19.40;;;;;;;-3.67;97.39;99116.19;4955602;28;20166;-62
2021/12/23 08:01:05;;;;;;;60.53;28.20;;;;;;;-3.57;97.55;99114.31;4952180;28;20043;-62
2021/12/23 08:03:30;;;;;;;54.00;22.17;;;;;;;-3.57;98.05;99105.59;4954345;28;20051;-62
2021/12/23 08:05:55;;;;;;;33.42;16.45;;;;;;;-3.58;97.60;99096.09;4946971;28;20126;-61
2021/12/23 08:08:21;;;;;;;53.25;23.77;;;;;;;-3.54;97.47;99097.44;4951612;28;20033;-62
2021/12/23 08:10:48;;;;;;;51.67;24.00;;;;;;;-3.52;97.80;99095.47;4943920;28;20050;-64
2021/12/23 08:13:13;;;;;;;58.78;26.73;;;;;;;-3.43;97.83;99093.72;4949478;28;20236;-62
2021/12/23 08:15:39;;;;;;;55.38;23.60;;;;;;;-3.43;98.05;99089.31;4946839;28;20039;-62
2021/12/23 08:18:04;;;;;;;39.88;19.52;;;;;;;-3.48;97.76;99096.81;4948920;28;20520;-62
2021/12/23 08:20:29;;;;;;;43.78;20.08;;;;;;;-3.46;97.69;99087.00;4954421;28;20086;-62
2021/12/23 08:22:55;;;;;;;60.33;25.20;;;;;;;-3.48;97.87;99086.34;4947689;28;20070;-62
2021/12/23 08:25:22;;;;;;;56.53;23.90;;;;;;;-3.38;97.51;99100.16;4949313;28;20062;-62
2021/12/23 08:27:48;;;;;;;51.92;23.20;;;;;;;-3.33;97.42;99090.00;4952874;28;20577;-62
2021/12/23 08:30:14;;;;;;;46.75;21.05;;;;;;;-3.36;97.06;99090.34;4957046;28;20098;-63
2021/12/23 08:32:39;;;;;;;70.45;30.75;;;;;;;-3.31;97.41;99072.34;4959078;28;20392;-63
2021/12/23 08:35:05;;;;;;;81.60;31.25;;;;;;;-3.28;97.50;99077.25;4957520;28;20027;-62
2021/12/23 08:37:30;;;;;;;59.35;22.27;;;;;;;-3.19;96.97;99074.69;4956797;28;20057;-63
2021/12/23 08:39:56;;;;;;;65.45;26.77;;;;;;;-3.18;97.36;99076.31;4952860;28;20261;-62
2021/12/23 08:42:21;;;;;;;66.93;28.40;;;;;;;-3.16;97.33;99075.19;4957788;28;20508;-62
2021/12/23 08:44:47;;;;;;;57.80;24.60;;;;;;;-3.16;97.18;99084.84;4939834;28;20494;-63
2021/12/23 08:47:13;;;;;;;59.97;26.30;;;;;;;-3.12;97.33;99076.53;4947362;28;20039;-63
2021/12/23 08:49:40;;;;;;;65.15;26.42;;;;;;;-3.04;97.69;99073.09;4952917;28;20026;-61
2021/12/23 08:52:06;;;;;;;61.38;24.13;;;;;;;-3.00;97.07;99066.53;4945973;28;20043;-61
2021/12/23 08:54:31;;;;;;;48.67;22.38;;;;;;;-2.86;97.22;99060.69;4943107;28;20070;-60
2021/12/23 08:56:57;;;;;;;58.53;25.42;;;;;;;-2.90;97.22;99069.84;4947490;28;20757;-60
2021/12/23 08:59:22;;;;;;;55.85;23.10;;;;;;;-2.81;97.11;99068.09;4949613;28;20056;-61
2021/12/23 09:01:47;;;;;;;54.60;23.23;;;;;;;-2.78;96.27;99059.06;4947653;28;20043;-60
2021/12/23 09:04:13;;;;;;;49.80;22.38;;;;;;;-2.90;96.68;99061.97;4955380;28;20031;-61
2021/12/23 09:06:38;;;;;;;61.13;24.67;;;;;;;-2.74;96.51;99057.78;4947257;28;20134;-61
2021/12/23 09:09:04;;;;;;;65.60;27.50;;;;;;;-2.64;97.48;99064.50;4954973;28;20058;-61
2021/12/23 09:11:30;;;;;;;61.20;24.10;;;;;;;-2.79;96.96;99060.06;4951218;28;20042;-61
2021/12/23 09:13:55;;;;;;;51.83;23.50;;;;;;;-2.82;97.14;99061.22;4945478;28;20031;-61
2021/12/23 09:16:20;;;;;;;57.00;24.27;;;;;;;-2.73;97.27;99054.97;4951184;28;20043;-61
2021/12/23 09:18:46;;;;;;;52.67;23.83;;;;;;;-2.66;97.52;99082.22;4954016;28;20458;-61
2021/12/23 09:21:12;;;;;;;74.32;28.73;;;;;;;-2.56;97.34;99070.75;4950126;28;20380;-61
2021/12/23 09:23:39;;;;;;;64.35;27.30;;;;;;;-2.58;97.15;99068.28;4949064;28;20058;-61
2021/12/23 09:26:10;;;;;;;58.83;23.73;;;;;;;-2.56;97.25;99061.06;4942057;28;20471;-60
2021/12/23 09:34:06;;;;;;;62.45;26.95;;;;;;;-2.33;96.64;99050.75;4949667;28;20097;-61
2021/12/23 09:36:31;;;;;;;50.08;22.33;;;;;;;-2.20;96.36;99050.25;4952895;28;20051;-60
2021/12/23 09:38:56;;;;;;;37.90;17.70;;;;;;;-2.17;95.93;99039.44;4944608;28;20110;-61
2021/12/23 09:41:22;;;;;;;62.65;25.85;;;;;;;-2.06;96.18;99046.97;4946003;28;20047;-61
2021/12/23 09:43:47;;;;;;;57.63;25.40;;;;;;;-2.08;96.06;99051.56;4950056;28;20030;-62
2021/12/23 09:46:15;;;;;;;46.53;18.33;;;;;;;-1.97;95.86;99047.78;4946646;28;20039;-61
2021/12/23 09:48:42;;;;;;;58.40;23.48;;;;;;;-1.86;95.55;99044.00;4946941;28;20034;-60
2021/12/23 09:51:08;;;;;;;55.47;23.00;;;;;;;-1.84;95.84;99042.84;4945640;28;20035;-61
2021/12/23 09:53:35;;;;;;;60.05;23.25;;;;;;;-1.89;94.88;99044.34;4947266;28;20706;-60
2021/12/23 09:56:01;;;;;;;54.50;23.25;;;;;;;-1.83;95.33;99041.03;4943762;28;20039;-60
2021/12/23 09:58:26;;;;;;;52.70;22.40;;;;;;;-1.71;94.52;99037.06;4953703;28;20112;-61
2021/12/23 10:00:52;;;;;;;59.60;25.80;;;;;;;-1.58;93.67;99042.59;4948455;28;20046;-61
2021/12/23 10:03:18;;;;;;;51.60;22.27;;;;;;;-1.36;92.92;99043.69;4951039;28;20834;-60
2021/12/23 10:05:44;;;;;;;58.63;23.60;;;;;;;-1.57;92.91;99046.88;4947804;28;20043;-61
2021/12/23 10:08:11;;;;;;;47.10;20.20;;;;;;;-1.68;93.32;99047.22;4947380;28;20046;-61
2021/12/23 10:38:24;;;;;;;53.15;23.95;;;;;;;-0.89;91.51;98987.56;4953452;28;20631;-60
2021/12/23 10:40:51;;;;;;;43.85;20.90;;;;;;;-0.89;91.41;98981.47;4949278;28;20065;-60
2021/12/23 10:43:22;;;;;;;57.30;23.05;;;;;;;-0.61;90.60;98997.56;4954542;28;20115;-65
2021/12/23 10:45:55;;;;;;;48.10;21.15;;;;;;;-0.63;90.43;98993.47;4954751;28;20082;-60
2021/12/23 10:48:21;;;;;;;52.72;25.33;;;;;;;-0.40;89.32;98993.44;4948903;28;20110;-60
2021/12/23 10:50:56;;;;;;;47.45;21.05;;;;;;;-0.38;91.12;98984.38;4955140;28;20030;-59
2021/12/23 10:54:08;;;;;;;52.08;21.42;;;;;;;-0.32;90.98;98970.50;4953849;28;20027;-61
2021/12/23 10:59:20;;;;;;;53.92;22.02;;;;;;;-0.35;90.73;98962.97;4952604;28;20042;-59
2021/12/23 11:02:20;;;;;;;62.65;25.50;;;;;;;-0.63;92.21;98969.78;4958717;28;20046;-59
2021/12/23 11:07:52;;;;;;;54.85;22.48;;;;;;;-0.61;91.67;98959.88;4953922;28;20781;-61
2021/12/23 11:38:58;;;;;;;43.50;19.83;;;;;;;-0.27;89.62;98868.06;4950472;28;20279;-60
2021/12/23 11:43:57;;;;;;;49.35;22.10;;;;;;;0.05;89.73;98859.94;4961862;28;20038;-61
2021/12/23 11:46:31;;;;;;;53.20;22.13;;;;;;;-0.04;89.36;98872.41;4952570;28;20046;-60
2021/12/23 11:48:57;;;;;;;50.75;23.95;;;;;;;-0.33;90.18;98858.25;4954809;28;20039;-60
2021/12/23 11:53:56;;;;;;;54.80;28.10;;;;;;;-0.49;90.94;98847.91;4950535;28;20046;-60
2021/12/23 11:56:22;;;;;;;50.65;22.35;;;;;;;-0.44;91.47;98840.28;4947638;28;20040;-60
2021/12/23 11:58:48;;;;;;;42.35;19.52;;;;;;;-0.30;91.56;98842.09;4950017;28;20043;-60
2021/12/23 12:01:16;;;;;;;52.03;21.15;;;;;;;-0.31;90.99;98831.72;4952277;28;20130;-60
2021/12/23 12:04:37;;;;;;;46.85;20.48;;;;;;;-0.37;91.29;98849.09;4950140;28;20145;-60
2021/12/23 12:07:23;;;;;;;;;;;;;;;-0.32;91.48;98836.19;4935169;28;20047;-60
2021/12/23 12:09:56;;;;;;;44.03;19.15;;;;;;;-0.19;90.96;98834.72;4954235;28;20012;-60
2021/12/23 12:12:21;;;;;;;39.33;19.00;;;;;;;-0.22;90.95;98842.00;4950703;28;20070;-60
2021/12/23 12:14:47;;;;;;;44.85;20.30;;;;;;;-0.07;90.29;98833.28;4948046;28;20031;-60
2021/12/23 12:17:24;;;;;;;51.92;24.35;;;;;;;0.03;89.02;98818.00;4949714;28;20047;-62
2021/12/23 12:20:00;;;;;;;47.10;23.38;;;;;;;0.10;88.89;98832.06;4954847;28;20039;-60
2021/12/23 12:22:59;;;;;;;45.42;20.67;;;;;;;0.07;89.48;98834.25;4957707;28;20043;-61
2021/12/23 12:25:24;;;;;;;58.88;26.35;;;;;;;0.08;90.38;98826.16;4945437;28;20541;-60
2021/12/23 12:27:55;;;;;;;30.52;13.45;;;;;;;0.05;90.31;98834.44;4953209;28;20043;-60
2021/12/23 12:30:42;;;;;;;48.97;21.10;;;;;;;0.01;90.93;98825.25;4950634;28;20066;-60
2021/12/23 12:33:24;;;;;;;36.33;18.10;;;;;;;0.01;91.08;98819.19;4952182;28;20046;-60